Time;durP1;ratioP1;P1;durP2;ratioP2;P2;SDS_P1;SDS_P2;PMS_P1;PMS_P2;Temp;Humidity;BMP_temperature;BMP_pressure;BME280_temperature;BME280_humidity;BME280_pressure;Samples;Min_cycle;Max_cycle;Signal;HPM_P1;HPM_P2
2023/04/28 00:02:12;;;;;;;1999.90;999.90;;;;;;;9.04;100.00;98204.47;5134918;27;20030;-74
2023/04/28 00:04:38;;;;;;;1999.90;999.90;;;;;;;9.06;100.00;98206.88;5134789;27;20058;-74
2023/04/28 00:07:04;;;;;;;1999.90;999.90;;;;;;;9.00;100.00;98213.47;5134697;27;20077;-74
2023/04/28 00:09:30;;;;;;;1999.90;999.90;;;;;;;8.98;100.00;98207.47;5134551;27;20019;-74
2023/04/28 00:11:55;;;;;;;1999.90;999.90;;;;;;;8.98;100.00;98211.03;5134575;27;20088;-75
2023/04/28 00:14:20;;;;;;;1999.90;999.90;;;;;;;9.04;100.00;98211.81;5138937;27;20027;-75
2023/04/28 00:16:46;;;;;;;1999.90;999.90;;;;;;;8.90;100.00;98197.13;5137814;27;20073;-74
2023/04/28 00:19:11;;;;;;;1999.90;999.90;;;;;;;8.89;100.00;98187.34;5134416;27;20119;-74
2023/04/28 00:21:37;;;;;;;1999.90;999.90;;;;;;;8.98;100.00;98199.28;5134307;27;20019;-74
2023/04/28 00:24:03;;;;;;;1999.90;999.90;;;;;;;9.04;100.00;98198.19;5134131;27;20050;-74
2023/04/28 00:26:28;;;;;;;1999.90;999.90;;;;;;;9.00;100.00;98199.81;5134204;27;20539;-74
2023/04/28 00:28:54;;;;;;;1999.90;999.90;;;;;;;8.97;100.00;98197.66;5134124;27;20039;-74
2023/04/28 00:31:19;;;;;;;1999.90;999.90;;;;;;;9.02;100.00;98205.84;5134750;27;20050;-74
2023/04/28 00:33:44;;;;;;;1999.90;999.90;;;;;;;9.00;100.00;98213.47;5134129;27;20506;-75
2023/04/28 00:36:10;;;;;;;1999.90;999.90;;;;;;;8.97;100.00;98211.28;5134284;27;20057;-74
2023/04/28 00:38:36;;;;;;;1999.90;999.90;;;;;;;8.92;100.00;98205.88;5133884;27;20463;-74
2023/04/28 00:41:01;;;;;;;1999.90;999.90;;;;;;;8.98;100.00;98202.03;5134088;27;20477;-74
2023/04/28 00:43:28;;;;;;;1999.90;999.90;;;;;;;8.96;100.00;98205.03;5134026;27;20027;-74
2023/04/28 00:45:53;;;;;;;1999.90;999.90;;;;;;;8.83;100.00;98194.72;5134020;27;20027;-74
2023/04/28 00:48:19;;;;;;;1999.90;999.90;;;;;;;8.77;100.00;98200.47;5134062;27;20808;-74
2023/04/28 00:50:46;;;;;;;1999.90;999.90;;;;;;;8.64;100.00;98187.41;5133776;27;20020;-74
2023/04/28 00:53:12;;;;;;;1999.90;999.90;;;;;;;8.73;100.00;98196.66;5134133;27;20023;-74
2023/04/28 00:55:39;;;;;;;1999.90;999.90;;;;;;;8.67;100.00;98203.22;5136383;27;20065;-74
2023/04/28 00:58:06;;;;;;;1999.90;999.90;;;;;;;8.80;100.00;98202.66;5133765;27;20034;-74
2023/04/28 01:00:32;;;;;;;1999.90;999.90;;;;;;;8.75;100.00;98200.72;5133408;27;20035;-74
2023/04/28 01:02:58;;;;;;;1999.90;999.90;;;;;;;8.73;100.00;98202.94;5133601;27;20042;-74
2023/04/28 01:05:27;;;;;;;1999.90;999.90;;;;;;;8.73;100.00;98202.94;5133608;27;20456;-74
2023/04/28 01:07:53;;;;;;;1999.90;999.90;;;;;;;8.66;100.00;98199.66;5133637;27;20072;-74
2023/04/28 01:10:18;;;;;;;1999.90;999.90;;;;;;;8.67;100.00;98206.78;5133122;27;20051;-75
2023/04/28 01:12:44;;;;;;;1999.90;999.90;;;;;;;8.57;100.00;98196.69;5133469;27;20384;-74
2023/04/28 01:15:15;;;;;;;1999.90;999.90;;;;;;;8.56;100.00;98199.69;5133392;27;20113;-73
2023/04/28 01:17:41;;;;;;;1999.90;999.90;;;;;;;8.55;100.00;98200.81;5133043;27;20035;-75
2023/04/28 01:20:07;;;;;;;1999.90;999.90;;;;;;;8.50;100.00;98198.88;5133426;27;20027;-74
2023/04/28 01:22:32;;;;;;;1999.90;999.90;;;;;;;8.33;100.00;98182.00;5132519;27;20054;-74
2023/04/28 01:24:59;;;;;;;1999.90;999.90;;;;;;;8.39;100.00;98197.28;5133672;27;20472;-74
2023/04/28 01:27:24;;;;;;;1999.90;999.90;;;;;;;8.31;100.00;98197.00;5133878;27;20023;-74
2023/04/28 01:29:50;;;;;;;1999.90;999.90;;;;;;;8.30;100.00;98198.91;5133212;27;20030;-74
2023/04/28 01:32:15;;;;;;;1999.90;999.90;;;;;;;8.37;100.00;98193.19;5133956;27;20028;-74
2023/04/28 01:34:40;;;;;;;1999.90;999.90;;;;;;;8.32;100.00;98202.19;5134377;27;20051;-74
2023/04/28 01:37:06;;;;;;;1999.90;999.90;;;;;;;8.34;100.00;98205.44;5099072;27;20023;-74
2023/04/28 01:39:31;;;;;;;1999.90;999.90;;;;;;;8.27;100.00;98193.97;5134096;27;20472;-74
2023/04/28 01:41:56;;;;;;;1999.90;999.90;;;;;;;8.24;100.00;98202.69;5134088;27;20392;-74
2023/04/28 01:44:22;;;;;;;1999.90;999.90;;;;;;;8.11;100.00;98200.56;5134139;27;20023;-74
2023/04/28 01:46:47;;;;;;;1999.90;999.90;;;;;;;8.18;100.00;98200.25;5134297;27;20030;-74
2023/04/28 01:49:12;;;;;;;1999.90;999.90;;;;;;;8.17;100.00;98204.91;5132635;27;20031;-75
2023/04/28 01:51:39;;;;;;;1999.90;999.90;;;;;;;7.96;100.00;98193.19;5132580;27;20084;-74
2023/04/28 01:54:04;;;;;;;1999.90;999.90;;;;;;;8.07;100.00;98200.28;5134356;27;20034;-75
2023/04/28 01:56:29;;;;;;;1999.90;999.90;;;;;;;8.04;100.00;98205.47;5134727;27;20027;-74
2023/04/28 01:58:56;;;;;;;1999.90;999.90;;;;;;;8.03;100.00;98198.38;5115114;27;20059;-74
2023/04/28 02:01:22;;;;;;;1999.90;999.90;;;;;;;7.97;100.00;98188.56;5132617;27;20061;-74
2023/04/28 02:03:49;;;;;;;1999.90;999.90;;;;;;;7.96;100.00;98195.91;5132791;27;20468;-74
2023/04/28 02:06:14;;;;;;;1999.90;999.90;;;;;;;8.04;100.00;98206.28;5132090;27;20117;-74
2023/04/28 02:08:39;;;;;;;1999.90;999.90;;;;;;;8.02;100.00;98202.16;5132105;27;20098;-74
2023/04/28 02:11:05;;;;;;;1999.90;999.90;;;;;;;7.93;100.00;98209.25;5132142;27;20073;-74
2023/04/28 02:13:30;;;;;;;1999.90;999.90;;;;;;;7.80;100.00;98216.06;5131201;27;20417;-74
2023/04/28 02:16:00;;;;;;;1999.90;999.90;;;;;;;7.71;100.00;98222.28;5132452;27;20023;-74
2023/04/28 02:18:25;;;;;;;1999.90;999.90;;;;;;;7.60;100.00;98215.22;5132430;27;20059;-74
2023/04/28 02:20:50;;;;;;;1999.90;999.90;;;;;;;7.68;100.00;98217.41;5135216;27;20468;-78
2023/04/28 02:23:16;;;;;;;1999.90;999.90;;;;;;;7.63;100.00;98214.69;5138596;27;20387;-82
2023/04/28 02:25:41;;;;;;;1999.90;999.90;;;;;;;7.58;100.00;98209.25;5134312;27;20498;-74
2023/04/28 02:28:06;;;;;;;1999.90;999.90;;;;;;;7.54;100.00;98217.13;5132233;27;20092;-74
2023/04/28 02:30:32;;;;;;;1999.90;999.90;;;;;;;7.30;100.00;98178.69;5132041;27;20038;-74
2023/04/28 02:32:57;;;;;;;1999.90;999.90;;;;;;;7.58;100.00;98220.13;5132768;27;20059;-74
2023/04/28 02:35:22;;;;;;;1999.90;999.90;;;;;;;7.59;100.00;98213.56;5113335;27;20030;-75
2023/04/28 02:37:48;;;;;;;1999.90;999.90;;;;;;;7.54;100.00;98212.50;5130243;27;20467;-74
2023/04/28 02:40:13;;;;;;;1999.90;999.90;;;;;;;7.47;100.00;98203.78;5131321;27;20090;-74
2023/04/28 02:42:41;;;;;;;1999.90;999.90;;;;;;;7.44;100.00;98207.03;5131468;27;20046;-74
2023/04/28 02:45:07;;;;;;;1999.90;999.90;;;;;;;7.48;100.00;98205.41;5131559;27;20031;-74
2023/04/28 02:47:32;;;;;;;1999.90;999.90;;;;;;;7.51;100.00;98209.50;5131564;27;20031;-75
2023/04/28 02:49:58;;;;;;;1999.90;999.90;;;;;;;7.50;100.00;98205.94;5131446;27;20039;-75
2023/04/28 02:52:23;;;;;;;1999.90;999.90;;;;;;;7.46;100.00;98204.84;5131520;27;20046;-74
2023/04/28 02:54:53;;;;;;;1999.90;999.90;;;;;;;7.49;100.00;98209.75;5109046;28;20042;-74
2023/04/28 02:57:18;;;;;;;1999.90;999.90;;;;;;;7.51;100.00;98212.22;5110447;28;20054;-74
2023/04/28 02:59:43;;;;;;;1999.90;999.90;;;;;;;7.59;100.00;98213.56;5092560;28;20024;-74
2023/04/28 03:02:09;;;;;;;1999.90;999.90;;;;;;;7.45;100.00;98203.22;5127357;27;20430;-74
2023/04/28 03:04:34;;;;;;;1999.90;999.90;;;;;;;7.53;100.00;98212.75;5131544;28;20031;-75
2023/04/28 03:07:00;;;;;;;1999.90;999.90;;;;;;;7.53;100.00;98207.31;5131034;28;20031;-74
2023/04/28 03:09:25;;;;;;;1999.90;999.90;;;;;;;7.62;100.00;98213.03;5131113;28;20027;-75
2023/04/28 03:11:51;;;;;;;1999.90;999.90;;;;;;;7.58;100.00;98209.25;5130897;28;20061;-74
2023/04/28 03:14:16;;;;;;;1999.90;999.90;;;;;;;7.47;100.00;98206.50;5114306;28;20038;-74
2023/04/28 03:16:41;;;;;;;1999.90;999.90;;;;;;;7.52;100.00;98217.38;5111282;28;20034;-74
2023/04/28 03:19:06;;;;;;;1999.90;999.90;;;;;;;7.34;100.00;98198.84;5110142;28;20050;-75
2023/04/28 03:21:32;;;;;;;1999.90;999.90;;;;;;;7.38;100.00;98207.28;5110546;28;20077;-74
2023/04/28 03:23:58;;;;;;;1999.90;999.90;;;;;;;7.33;100.00;98215.44;5110600;28;20027;-74
2023/04/28 03:26:23;;;;;;;1999.90;999.90;;;;;;;7.31;100.00;98220.31;5113844;27;20466;-74
2023/04/28 03:28:48;;;;;;;1999.90;999.90;;;;;;;7.22;100.00;98208.31;5114626;28;20038;-75
2023/04/28 03:31:14;;;;;;;1999.90;999.90;;;;;;;7.21;100.00;98207.50;5114407;27;20473;-75
2023/04/28 03:33:40;;;;;;;1999.90;999.90;;;;;;;7.27;100.00;98209.16;5114906;27;20032;-74
2023/04/28 03:36:05;;;;;;;1999.90;999.90;;;;;;;7.30;100.00;98205.88;5114516;28;20110;-75
2023/04/28 03:38:32;;;;;;;1999.90;999.90;;;;;;;7.26;100.00;98204.00;5114602;28;20031;-75
2023/04/28 03:40:58;;;;;;;1999.90;999.90;;;;;;;7.21;100.00;98203.94;5096303;28;20568;-74
2023/04/28 03:43:23;;;;;;;1999.90;999.90;;;;;;;7.19;100.00;98197.97;5115675;27;20118;-75
2023/04/28 03:45:49;;;;;;;1999.90;999.90;;;;;;;7.19;100.00;98197.97;5137831;27;20061;-75
2023/04/28 03:48:14;;;;;;;1999.90;999.90;;;;;;;7.17;100.00;98211.03;5116709;27;20484;-74
2023/04/28 03:50:41;;;;;;;1999.90;999.90;;;;;;;7.09;100.00;98204.19;5119198;27;20468;-74
2023/04/28 03:53:07;;;;;;;1999.90;999.90;;;;;;;7.13;100.00;98204.47;5129787;27;20023;-74
2023/04/28 03:55:32;;;;;;;1999.90;999.90;;;;;;;7.10;100.00;98210.47;5095673;28;20027;-75
2023/04/28 03:57:57;;;;;;;1999.90;999.90;;;;;;;7.13;100.00;98199.03;5095766;28;20369;-75
2023/04/28 04:00:24;;;;;;;1999.90;999.90;;;;;;;7.14;100.00;98206.91;5113946;28;20435;-74
2023/04/28 04:02:51;;;;;;;1999.90;999.90;;;;;;;7.14;100.00;98212.38;5113999;28;20028;-74
2023/04/28 04:05:16;;;;;;;1999.90;999.90;;;;;;;7.14;100.00;98217.00;5096015;28;20031;-74
2023/04/28 04:07:41;;;;;;;1999.90;999.90;;;;;;;7.10;100.00;98213.19;5114072;28;20027;-75
2023/04/28 04:10:07;;;;;;;1999.90;999.90;;;;;;;7.14;100.00;98201.47;5114229;28;20051;-75
2023/04/28 04:12:33;;;;;;;1999.90;999.90;;;;;;;7.21;100.00;98218.38;5114135;28;20472;-74
2023/04/28 04:14:58;;;;;;;1999.90;999.90;;;;;;;7.27;100.00;98221.94;5113774;28;20399;-74
2023/04/28 04:17:23;;;;;;;1999.90;999.90;;;;;;;7.39;100.00;98212.44;5113909;28;20036;-75
2023/04/28 04:19:49;;;;;;;1999.90;999.90;;;;;;;7.33;100.00;98216.22;5114150;28;20020;-74
2023/04/28 04:22:14;;;;;;;1999.90;999.90;;;;;;;7.34;100.00;98211.63;5115523;28;20051;-74
2023/04/28 04:24:39;;;;;;;1999.90;999.90;;;;;;;7.47;100.00;98216.56;5118983;27;20059;-74
2023/04/28 04:27:05;;;;;;;1999.90;999.90;;;;;;;7.45;100.00;98203.22;5155229;27;20018;-74
2023/04/28 04:29:30;;;;;;;1999.90;999.90;;;;;;;7.57;100.00;98223.91;5156245;27;20023;-74
2023/04/28 04:31:55;;;;;;;1999.90;999.90;;;;;;;7.61;100.00;98216.88;5160166;27;20536;-79
2023/04/28 04:34:21;;;;;;;1999.90;999.90;;;;;;;7.58;100.00;98215.47;5156463;27;20023;-74
2023/04/28 04:36:46;;;;;;;1999.90;999.90;;;;;;;7.68;100.00;98220.94;5135102;27;20034;-75
2023/04/28 04:39:11;;;;;;;1999.90;999.90;;;;;;;7.80;100.00;98209.81;5154668;27;20027;-74
2023/04/28 04:41:37;;;;;;;1999.90;999.90;;;;;;;7.91;100.00;98200.53;5154271;27;20502;-74
2023/04/28 04:44:03;;;;;;;1999.90;999.90;;;;;;;8.02;100.00;98199.44;5154521;27;20022;-74
2023/04/28 04:46:28;;;;;;;1999.90;999.90;;;;;;;8.15;100.00;98206.25;5154509;27;20090;-75
2023/04/28 04:48:54;;;;;;;1999.90;999.90;;;;;;;8.09;100.00;98214.44;5153842;27;20160;-75
2023/04/28 04:51:19;;;;;;;1999.90;999.90;;;;;;;8.12;100.00;98210.34;5154453;27;20383;-74
2023/04/28 04:53:44;;;;;;;1999.90;999.90;;;;;;;8.34;100.00;98227.25;5154159;27;20054;-74
2023/04/28 04:56:10;;;;;;;1999.90;999.90;;;;;;;8.36;100.00;98229.72;5135413;27;20467;-74
2023/04/28 04:58:37;;;;;;;1999.90;999.90;;;;;;;8.45;100.00;98237.06;5135807;27;20031;-74
2023/04/28 05:01:04;;;;;;;1999.90;999.90;;;;;;;8.52;100.00;98236.78;5155554;27;20037;-72
2023/04/28 05:03:29;;;;;;;1999.90;999.90;;;;;;;8.56;100.00;98241.41;5128111;27;20042;-75
2023/04/28 05:05:55;;;;;;;1999.90;999.90;;;;;;;8.72;100.00;98238.66;5113253;28;20023;-74
2023/04/28 05:08:20;;;;;;;1999.90;999.90;;;;;;;8.83;100.00;98237.53;5117967;27;20023;-74
2023/04/28 05:10:46;;;;;;;1999.90;999.90;;;;;;;8.83;100.00;98234.81;5134268;27;20048;-75
2023/04/28 05:13:11;;;;;;;1999.90;999.90;;;;;;;8.92;100.00;98233.16;5133587;27;20464;-74
2023/04/28 05:15:36;;;;;;;1999.90;999.90;;;;;;;8.85;100.00;98217.06;5131936;27;20383;-74
2023/04/28 05:18:08;;;;;;;1999.90;999.90;;;;;;;9.11;100.00;98229.50;5132988;27;20069;-76
2023/04/28 05:20:33;;;;;;;1999.90;999.90;;;;;;;9.24;100.00;98236.28;5132936;27;20015;-74
2023/04/28 05:22:59;;;;;;;1999.90;999.90;;;;;;;9.21;100.00;98222.41;5114429;27;20042;-74
2023/04/28 05:25:25;;;;;;;1999.90;999.90;;;;;;;9.07;100.00;98190.25;5132564;27;20033;-74
2023/04/28 05:27:50;;;;;;;1999.90;999.90;;;;;;;9.26;100.00;98228.66;5132813;27;20099;-74
2023/04/28 05:30:15;;;;;;;1999.90;999.90;;;;;;;9.20;100.00;98220.75;5132255;27;20408;-74
2023/04/28 05:32:41;;;;;;;1999.90;999.90;;;;;;;9.19;100.00;98214.47;5132667;27;20104;-74
2023/04/28 05:35:06;;;;;;;1999.90;999.90;;;;;;;9.34;100.00;98222.59;5132920;27;20034;-74
2023/04/28 05:37:33;;;;;;;1999.90;999.90;;;;;;;9.07;100.00;98186.72;5113929;27;20023;-74
2023/04/28 05:39:59;;;;;;;1999.90;999.90;;;;;;;9.51;100.00;98241.34;5132178;27;20106;-74
2023/04/28 05:42:24;;;;;;;1999.90;999.90;;;;;;;9.31;100.00;98230.53;5113618;27;20126;-74
2023/04/28 05:44:49;;;;;;;1999.90;999.90;;;;;;;9.13;100.00;98227.34;5132142;27;20023;-74
2023/04/28 05:47:15;;;;;;;1999.90;999.90;;;;;;;8.77;100.00;98234.00;5132153;27;20136;-74
2023/04/28 05:49:40;;;;;;;1999.90;999.90;;;;;;;9.26;100.00;98228.66;5111975;27;20106;-74
2023/04/28 05:52:05;;;;;;;1999.90;999.90;;;;;;;9.56;100.00;98227.66;5132115;27;20080;-74
2023/04/28 05:54:33;;;;;;;1999.90;999.90;;;;;;;9.80;100.00;98236.81;5133754;27;20027;-74
2023/04/28 05:56:58;;;;;;;1999.90;999.90;;;;;;;9.83;100.00;98227.22;5109303;28;20043;-74
2023/04/28 05:59:23;;;;;;;1999.90;999.90;;;;;;;9.92;100.00;98223.63;5093116;28;20023;-74
2023/04/28 06:01:49;;;;;;;1999.90;999.90;;;;;;;10.06;100.00;98226.50;5111446;28;20019;-75
2023/04/28 06:04:18;;;;;;;1999.90;999.90;;;;;;;10.29;100.00;98214.88;5111392;28;20145;-74
2023/04/28 06:06:43;;;;;;;1999.90;999.90;;;;;;;10.70;100.00;98234.44;5093319;28;20104;-74
2023/04/28 06:09:16;;;;;;;1999.90;999.90;;;;;;;10.74;100.00;98244.50;5100015;27;1481187;-74
2023/04/28 06:11:42;;;;;;;1999.90;999.90;;;;;;;10.94;100.00;98248.13;5128482;27;20036;-75
2023/04/28 06:14:07;;;;;;;1999.90;999.90;;;;;;;10.80;100.00;98258.16;5128088;27;20436;-75
2023/04/28 06:16:32;;;;;;;1999.90;999.90;;;;;;;10.87;100.00;98262.16;5128335;28;20073;-75
2023/04/28 06:18:58;;;;;;;1999.90;999.90;;;;;;;10.95;100.00;98258.00;5128044;28;20503;-75
2023/04/28 06:21:24;;;;;;;1999.90;999.90;;;;;;;11.00;100.00;98255.19;5128061;27;20055;-73
2023/04/28 06:23:49;;;;;;;1999.90;999.90;;;;;;;11.09;100.00;98275.34;5128400;27;20035;-75
2023/04/28 06:26:15;;;;;;;1999.90;999.90;;;;;;;11.21;100.00;98267.56;5128171;27;20430;-75
2023/04/28 06:28:40;;;;;;;1999.90;999.90;;;;;;;11.31;100.00;98253.72;5127023;28;20396;-76
2023/04/28 06:31:05;;;;;;;1999.90;999.90;;;;;;;11.47;100.00;98246.13;5128848;27;20058;-75
2023/04/28 06:33:31;;;;;;;1999.90;999.90;;;;;;;11.42;100.00;98230.59;5130897;27;20027;-75
2023/04/28 06:35:56;;;;;;;1999.90;999.90;;;;;;;11.43;100.00;98250.59;5129320;27;20023;-75
2023/04/28 06:38:22;;;;;;;1999.90;999.90;;;;;;;11.66;100.00;98247.78;5130501;28;20018;-82
2023/04/28 06:40:47;;;;;;;1999.90;999.90;;;;;;;11.96;100.00;98237.53;5130154;28;20031;-81
2023/04/28 06:43:12;;;;;;;1999.90;999.90;;;;;;;12.15;100.00;98241.88;5131365;27;20038;-75
2023/04/28 06:45:38;;;;;;;1999.90;999.90;;;;;;;11.70;100.00;98226.13;5127571;28;20015;-74
2023/04/28 06:48:04;;;;;;;1999.90;999.90;;;;;;;11.78;100.00;98225.44;5128567;27;20050;-75
2023/04/28 06:50:31;;;;;;;1999.90;999.90;;;;;;;12.30;100.00;98225.19;5129442;27;20077;-75
2023/04/28 06:52:57;;;;;;;1999.90;999.90;;;;;;;12.62;100.00;98229.88;5128539;27;20497;-75
2023/04/28 06:55:23;;;;;;;1999.90;999.90;;;;;;;12.77;100.00;98220.53;5126063;28;20468;-75
2023/04/28 06:57:48;;;;;;;1999.90;999.90;;;;;;;13.04;100.00;98220.53;5124450;27;20039;-74
2023/04/28 07:00:14;;;;;;;1999.90;999.90;;;;;;;12.99;100.00;98214.34;5127200;27;20034;-74
2023/04/28 07:02:39;;;;;;;1999.90;999.90;;;;;;;13.04;100.00;98227.97;5127239;27;20019;-74
2023/04/28 07:05:05;;;;;;;1999.90;999.90;;;;;;;13.03;100.00;98221.66;5126946;27;20031;-74
2023/04/28 07:07:31;;;;;;;1999.90;999.90;;;;;;;13.60;100.00;98233.16;5126708;27;20053;-76
2023/04/28 07:09:57;;;;;;;1999.90;999.90;;;;;;;12.84;100.00;98220.97;5126090;28;20031;-74
2023/04/28 07:12:23;;;;;;;1999.90;999.90;;;;;;;13.47;100.00;98226.56;5125866;28;20118;-75
2023/04/28 07:14:49;;;;;;;1999.90;999.90;;;;;;;13.98;100.00;98222.69;5126662;27;20515;-75
2023/04/28 07:17:15;;;;;;;1999.90;999.90;;;;;;;14.12;100.00;98234.47;5124460;28;20030;-75
2023/04/28 07:19:41;;;;;;;1999.90;999.90;;;;;;;14.25;100.00;98228.88;5118430;27;20023;-75
2023/04/28 07:22:06;;;;;;;1999.90;999.90;;;;;;;14.18;100.00;98224.97;5112959;28;20091;-74
2023/04/28 07:24:31;;;;;;;1999.90;999.90;;;;;;;14.15;100.00;98222.84;5112711;28;20044;-77
2023/04/28 07:26:57;;;;;;;1999.90;999.90;;;;;;;14.11;100.00;98221.81;5110420;28;20391;-75
2023/04/28 07:29:23;;;;;;;1999.90;999.90;;;;;;;14.12;100.00;98217.97;5113141;27;20539;-74
2023/04/28 07:31:48;;;;;;;1999.90;999.90;;;;;;;14.29;100.00;98218.88;5112876;28;20023;-74
2023/04/28 07:34:14;;;;;;;1999.90;999.90;;;;;;;14.60;91.44;98210.69;5112593;27;20136;-75
2023/04/28 07:36:39;;;;;;;1999.90;999.90;;;;;;;14.62;88.94;98219.47;5112651;28;20481;-74
2023/04/28 07:39:05;;;;;;;1999.90;999.90;;;;;;;14.31;90.21;98202.91;5111322;28;20024;-75
2023/04/28 07:41:35;;;;;;;1999.90;999.90;;;;;;;15.13;83.64;98212.59;5111515;28;20019;-74
2023/04/28 07:44:01;;;;;;;1999.90;999.90;;;;;;;15.06;81.35;98215.81;5111589;28;20029;-75
2023/04/28 07:46:26;;;;;;;1999.90;999.90;;;;;;;14.42;84.47;98198.78;5112454;28;20080;-74
2023/04/28 07:48:52;;;;;;;1999.90;999.90;;;;;;;14.46;84.26;98201.72;5111708;28;20027;-74
2023/04/28 07:51:18;;;;;;;1999.90;999.90;;;;;;;14.59;82.93;98202.78;5111953;28;20031;-74
2023/04/28 07:53:43;;;;;;;1999.90;999.90;;;;;;;14.49;82.98;98201.09;5111962;28;20384;-73
2023/04/28 07:56:08;;;;;;;1999.90;999.90;;;;;;;14.55;82.49;98210.03;5111992;28;20024;-74
2023/04/28 07:58:33;;;;;;;1999.90;999.90;;;;;;;15.14;78.57;98200.41;5108677;28;20106;-75
2023/04/28 08:00:59;;;;;;;1999.90;999.90;;;;;;;15.04;79.29;98204.28;5112833;28;20081;-74
2023/04/28 08:03:24;;;;;;;1999.90;999.90;;;;;;;15.36;77.72;98203.09;5113239;28;20507;-80
2023/04/28 08:05:50;;;;;;;1999.90;999.90;;;;;;;15.20;77.66;98188.13;5111240;28;20420;-75
2023/04/28 08:08:15;;;;;;;1999.90;999.90;;;;;;;14.98;79.20;98191.78;5110500;27;20046;-74
2023/04/28 08:10:42;;;;;;;1999.90;999.90;;;;;;;15.09;78.15;98204.16;5111881;28;20429;-75
2023/04/28 08:13:07;;;;;;;1999.90;999.90;;;;;;;14.70;79.59;98198.59;5111363;28;20035;-74
2023/04/28 08:15:33;;;;;;;1999.90;999.90;;;;;;;14.52;80.92;98185.88;5109742;28;20924;-74
2023/04/28 08:17:58;;;;;;;1999.90;999.90;;;;;;;14.45;81.65;98183.56;5113178;28;20477;-79
2023/04/28 08:20:24;;;;;;;1999.90;999.90;;;;;;;14.40;81.89;98192.78;5103911;28;20069;-77
2023/04/28 08:22:49;;;;;;;1999.90;999.90;;;;;;;14.37;81.81;98198.09;5115618;28;20011;-79
2023/04/28 08:25:14;;;;;;;1999.90;999.90;;;;;;;14.06;82.79;98181.50;5115056;28;20097;-82
2023/04/28 08:27:40;;;;;;;1999.90;999.90;;;;;;;14.19;82.28;98204.59;5111659;28;20027;-82
2023/04/28 08:30:07;;;;;;;1999.90;999.90;;;;;;;14.32;82.00;98204.50;5115503;28;20765;-88
2023/04/28 08:32:33;;;;;;;1999.90;999.90;;;;;;;14.44;82.05;98203.94;5117287;28;20020;-90
2023/04/28 08:34:59;;;;;;;1999.90;999.90;;;;;;;14.50;81.05;98205.47;5117705;28;20034;-86
2023/04/28 08:37:25;;;;;;;1999.90;999.90;;;;;;;14.70;79.88;98217.88;5112746;28;20451;-73
2023/04/28 08:39:58;;;;;;;1999.90;999.90;;;;;;;14.77;79.27;98210.00;5112408;28;20073;-77
2023/04/28 08:42:27;;;;;;;1999.90;999.90;;;;;;;14.71;79.38;98214.00;5112059;28;20036;-74
2023/04/28 08:44:58;;;;;;;1999.90;999.90;;;;;;;14.60;80.17;98216.19;5112887;28;20084;-74
2023/04/28 08:47:31;;;;;;;1999.90;999.90;;;;;;;14.61;81.08;98215.09;5118543;28;20020;-77
2023/04/28 08:50:04;;;;;;;1999.90;999.90;;;;;;;14.42;81.08;98201.53;5112743;28;20104;-73
2023/04/28 08:52:30;;;;;;;1999.90;999.90;;;;;;;14.19;82.95;98201.84;5114795;27;20016;-73
2023/04/28 08:54:58;;;;;;;1999.90;999.90;;;;;;;14.48;81.07;98210.47;5109948;28;20019;-74
2023/04/28 08:57:26;;;;;;;1999.90;999.90;;;;;;;14.56;80.38;98206.97;5110598;28;20396;-76
2023/04/28 08:59:52;;;;;;;1999.90;999.90;;;;;;;14.63;78.87;98204.56;5110070;28;20037;-74
2023/04/28 09:02:18;;;;;;;1999.90;999.90;;;;;;;14.74;78.43;98191.34;5109939;28;20031;-75
2023/04/28 09:04:46;;;;;;;1999.90;999.90;;;;;;;14.79;78.66;98194.78;5110236;28;20019;-75
2023/04/28 09:07:12;;;;;;;1999.90;999.90;;;;;;;14.90;80.27;98189.81;5109253;28;20023;-75
2023/04/28 09:09:39;;;;;;;1999.90;999.90;;;;;;;15.03;81.11;98189.69;5110201;28;20027;-78
2023/04/28 09:12:04;;;;;;;1999.90;999.90;;;;;;;15.06;80.75;98184.69;5109709;28;20058;-75
2023/04/28 09:14:32;;;;;;;1999.90;999.90;;;;;;;15.04;81.43;98190.50;5109989;28;20126;-74
2023/04/28 09:16:57;;;;;;;1999.90;999.90;;;;;;;15.32;79.39;98182.81;5111986;28;20023;-74
2023/04/28 09:19:24;;;;;;;1999.90;999.90;;;;;;;15.42;77.65;98175.06;5110809;28;20032;-76
2023/04/28 09:21:55;;;;;;;1999.90;999.90;;;;;;;15.15;79.09;98182.78;5109959;28;20028;-75
2023/04/28 09:24:30;;;;;;;1999.90;999.90;;;;;;;15.21;79.59;98182.31;5111937;28;20088;-75
2023/04/28 09:26:56;;;;;;;1999.90;999.90;;;;;;;15.65;77.37;98178.53;5112526;28;20027;-76
2023/04/28 09:29:21;;;;;;;1999.90;999.90;;;;;;;15.89;76.88;98178.88;5112213;28;20123;-76
2023/04/28 09:31:47;;;;;;;1999.90;999.90;;;;;;;16.03;75.78;98174.00;5110523;28;20053;-76
2023/04/28 09:34:12;;;;;;;1999.90;999.90;;;;;;;16.28;73.62;98172.38;5109009;28;20027;-76
2023/04/28 09:36:37;;;;;;;1999.90;999.90;;;;;;;15.94;75.54;98164.91;5110522;28;20046;-75
2023/04/28 09:39:03;;;;;;;1999.90;999.90;;;;;;;16.43;72.71;98176.56;5110931;28;20461;-75
2023/04/28 09:41:42;;;;;;;1999.90;999.90;;;;;;;16.52;71.49;98177.34;5108452;28;20024;-76
2023/04/28 09:44:10;;;;;;;1999.90;999.90;;;;;;;16.46;71.78;98167.63;5109954;28;20023;-75
2023/04/28 09:46:36;;;;;;;1999.90;999.90;;;;;;;16.51;69.96;98156.38;5109776;28;20027;-76
2023/04/28 09:49:01;;;;;;;1999.90;999.90;;;;;;;16.40;70.17;98155.94;5109641;28;20019;-75
2023/04/28 09:51:27;;;;;;;1999.90;999.90;;;;;;;16.47;68.73;98163.72;5109947;28;20148;-74
2023/04/28 09:53:55;;;;;;;1999.90;999.90;;;;;;;16.88;67.44;98144.63;5110134;28;20027;-76
2023/04/28 09:56:21;;;;;;;1999.90;999.90;;;;;;;17.12;66.19;98149.53;5110340;28;20070;-74
2023/04/28 09:58:48;;;;;;;1999.90;999.90;;;;;;;17.43;65.16;98151.94;5110686;28;20028;-74
2023/04/28 10:01:15;;;;;;;1999.90;999.90;;;;;;;17.58;63.54;98151.38;5110357;28;20023;-78
2023/04/28 10:03:41;;;;;;;1999.90;999.90;;;;;;;17.28;63.92;98141.47;5110628;28;20098;-76
2023/04/28 10:06:07;;;;;;;1999.90;999.90;;;;;;;17.33;63.99;98149.56;5110309;28;20031;-77
2023/04/28 10:08:33;;;;;;;1999.90;999.90;;;;;;;17.61;63.01;98159.00;5110277;28;20130;-76
2023/04/28 10:10:59;;;;;;;1999.90;999.90;;;;;;;17.99;60.82;98153.34;5110572;28;20440;-77
2023/04/28 10:13:24;;;;;;;1999.90;999.90;;;;;;;18.42;59.34;98153.75;5110067;28;20055;-75
2023/04/28 10:15:50;;;;;;;1999.90;999.90;;;;;;;18.32;58.35;98150.63;5108861;28;20030;-75
2023/04/28 10:18:16;;;;;;;1999.90;999.90;;;;;;;18.30;59.04;98133.50;5109625;28;20016;-75
2023/04/28 10:20:48;;;;;;;1999.90;999.90;;;;;;;18.65;57.77;98145.88;5110032;28;20030;-75
2023/04/28 10:23:32;;;;;;;1999.90;999.90;;;;;;;18.31;58.19;98140.69;5108268;28;20036;-76
2023/04/28 10:25:58;;;;;;;1999.90;999.90;;;;;;;18.48;58.44;98129.44;5110396;28;20019;-75
2023/04/28 10:28:25;;;;;;;1999.90;999.90;;;;;;;19.44;55.35;98128.75;5108405;28;20024;-75
2023/04/28 10:31:10;;;;;;;1999.90;999.90;;;;;;;20.83;50.65;98124.00;5110110;28;20034;-78
2023/04/28 10:33:36;;;;;;;1999.90;999.90;;;;;;;20.21;51.79;98121.91;5093571;28;20015;-76
2023/04/28 10:36:03;;;;;;;1999.90;999.90;;;;;;;20.40;51.03;98101.00;5110999;28;20028;-76
2023/04/28 10:38:28;;;;;;;1999.90;999.90;;;;;;;20.24;52.09;98106.50;5110196;28;20016;-74
2023/04/28 10:41:00;;;;;;;1999.90;999.90;;;;;;;18.69;55.61;98080.31;5109952;28;20030;-74
2023/04/28 10:43:31;;;;;;;1999.90;999.90;;;;;;;19.42;54.70;98099.72;5108418;28;20023;-75
2023/04/28 10:46:00;;;;;;;1999.90;999.90;;;;;;;19.77;53.68;98100.78;5108534;28;20319;-76
2023/04/28 10:48:25;;;;;;;1999.90;999.90;;;;;;;20.28;49.55;98097.16;5111299;28;20058;-76